Terminal Aerodrome Forecast
Issued by NWS

Home | Current Version | Previous Version | Text Only | Print | Product List | Glossary On
Versions: 1 2 3 4 5 6 7 8 9 10 11 12 13 14 15 16 17 18 19 20 21 22 23 24 25 26 27 28 29
000
FTUS41 KOKX 021700
TAFSWF
TAF
KSWF 021737Z 0218/0324 27008KT P6SM BKN040
     FM030000 25007KT P6SM VCSH BKN040
     FM030400 28007KT P6SM SCT040 SCT120
     FM031500 30009KT P6SM SCT250
      AMD NOT SKED=

USA.gov is the U.S. government's official web portal to all federal, state and local government web resources and services.